Time;durP1;ratioP1;P1;durP2;ratioP2;P2;SDS_P1;SDS_P2;PMS_P1;PMS_P2;Temp;Humidity;BMP_temperature;BMP_pressure;BME280_temperature;BME280_humidity;BME280_pressure;Samples;Min_cycle;Max_cycle;Signal;HPM_P1;HPM_P2
2024/01/10 00:00:06;;;;;;;40.57;29.83;;;-4.40;99.90;;;;;;4877309;29;20446;-78
2024/01/10 00:02:33;;;;;;;39.20;28.43;;;-4.40;99.90;;;;;;4879196;29;20452;-78
2024/01/10 00:05:00;;;;;;;34.23;27.90;;;-4.40;99.90;;;;;;4878762;29;20506;-78
2024/01/10 00:07:26;;;;;;;37.23;30.17;;;-4.40;99.90;;;;;;4879296;29;20489;-78
2024/01/10 00:09:53;;;;;;;51.13;31.47;;;-4.40;99.90;;;;;;4877835;29;20506;-78
2024/01/10 00:12:20;;;;;;;36.47;28.80;;;-4.40;99.90;;;;;;4877030;29;20450;-78
2024/01/10 00:14:48;;;;;;;39.20;28.97;;;-4.30;99.90;;;;;;4877731;29;20513;-78
2024/01/10 00:17:15;;;;;;;46.77;29.07;;;-4.40;99.90;;;;;;4877428;29;20909;-78
2024/01/10 00:19:41;;;;;;;37.67;30.13;;;-4.40;99.90;;;;;;4879018;29;20445;-78
2024/01/10 00:22:08;;;;;;;43.60;30.60;;;-4.40;99.90;;;;;;4878708;29;20466;-78
2024/01/10 00:24:36;;;;;;;38.20;28.87;;;-4.40;99.90;;;;;;4877552;29;20921;-79
2024/01/10 00:27:03;;;;;;;38.13;29.30;;;-4.40;99.90;;;;;;4877036;29;20527;-78
2024/01/10 00:29:29;;;;;;;37.83;29.80;;;-4.30;99.90;;;;;;4878816;29;20461;-78
2024/01/10 00:31:59;;;;;;;37.67;30.00;;;-4.30;99.90;;;;;;4878626;29;20473;-78
2024/01/10 00:34:26;;;;;;;36.93;29.37;;;-4.20;99.90;;;;;;4877006;29;20903;-78
2024/01/10 00:36:53;;;;;;;41.53;29.90;;;-4.20;99.90;;;;;;4878292;29;21052;-78
2024/01/10 00:39:20;;;;;;;39.73;28.93;;;-4.10;99.90;;;;;;4876892;29;20883;-78
2024/01/10 00:41:47;;;;;;;38.47;28.87;;;-4.10;99.90;;;;;;4878768;29;20812;-78
2024/01/10 00:44:13;;;;;;;41.70;30.43;;;-4.10;99.90;;;;;;4876928;29;20585;-78
2024/01/10 00:46:40;;;;;;;39.63;30.57;;;-4.10;99.90;;;;;;4877404;29;21020;-78
2024/01/10 00:49:08;;;;;;;34.13;27.37;;;-4.00;99.90;;;;;;4882347;29;20945;-78
2024/01/10 00:51:35;;;;;;;35.90;29.23;;;-3.90;99.90;;;;;;4872274;29;20438;-78
2024/01/10 00:54:02;;;;;;;34.37;28.03;;;-3.90;99.90;;;;;;4877866;29;20992;-78
2024/01/10 00:56:28;;;;;;;40.43;29.97;;;-3.90;99.90;;;;;;4876813;29;20864;-78
2024/01/10 00:58:57;;;;;;;40.87;30.93;;;-3.90;99.90;;;;;;4878516;29;20518;-78
2024/01/10 01:01:24;;;;;;;41.47;29.73;;;-3.90;99.90;;;;;;4876802;29;20445;-78
2024/01/10 01:03:51;;;;;;;37.87;28.57;;;-3.90;99.90;;;;;;4878529;29;20449;-78
2024/01/10 01:06:19;;;;;;;39.73;30.73;;;-3.90;99.90;;;;;;4878023;29;20469;-78
2024/01/10 01:08:46;;;;;;;35.13;27.57;;;-3.90;99.90;;;;;;4878245;29;20450;-78
2024/01/10 01:11:14;;;;;;;39.90;29.87;;;-3.90;99.90;;;;;;4877953;29;20448;-78
2024/01/10 01:13:41;;;;;;;35.10;28.30;;;-3.80;99.90;;;;;;4872011;29;21010;-78
2024/01/10 01:16:08;;;;;;;39.30;30.93;;;-3.80;99.90;;;;;;4877472;29;21107;-78
2024/01/10 01:18:35;;;;;;;34.20;27.90;;;-3.90;99.90;;;;;;4878318;29;20454;-78
2024/01/10 01:21:02;;;;;;;35.77;27.97;;;-3.90;99.90;;;;;;4877986;29;20480;-78
2024/01/10 01:23:30;;;;;;;38.17;28.87;;;-4.00;99.90;;;;;;4873694;29;20450;-78
2024/01/10 01:25:57;;;;;;;35.13;28.67;;;-4.00;99.90;;;;;;4879502;29;20481;-78
2024/01/10 01:28:23;;;;;;;37.17;28.73;;;-4.00;99.90;;;;;;4881562;29;20949;-78
2024/01/10 01:30:50;;;;;;;36.97;28.10;;;-4.00;99.90;;;;;;4881768;29;20477;-78
2024/01/10 01:33:17;;;;;;;39.43;29.57;;;-4.00;99.90;;;;;;4881219;29;20493;-79
2024/01/10 01:35:44;;;;;;;43.23;29.90;;;-4.00;99.90;;;;;;4881668;29;20504;-77
2024/01/10 01:38:11;;;;;;;39.50;28.77;;;-4.00;99.90;;;;;;4880501;29;20540;-78
2024/01/10 01:40:39;;;;;;;38.93;30.27;;;-4.00;99.90;;;;;;4882745;29;20446;-78
2024/01/10 01:43:19;;;;;;;38.10;28.43;;;-4.00;99.90;;;;;;4881226;29;20449;-78
2024/01/10 01:45:46;;;;;;;37.27;29.93;;;-3.90;99.90;;;;;;4880464;29;20571;-78
2024/01/10 01:48:13;;;;;;;38.03;29.53;;;-3.90;99.90;;;;;;4881455;29;20497;-78
2024/01/10 01:50:40;;;;;;;37.40;28.17;;;-3.90;99.90;;;;;;4881432;29;20474;-78
2024/01/10 01:53:07;;;;;;;36.97;28.50;;;-3.90;99.90;;;;;;4879974;29;20545;-78
2024/01/10 01:55:34;;;;;;;37.90;28.40;;;-3.90;99.90;;;;;;4881643;29;20467;-79
2024/01/10 01:58:03;;;;;;;39.63;29.53;;;-3.90;99.90;;;;;;4879990;29;20450;-78
2024/01/10 02:00:30;;;;;;;43.60;30.63;;;-3.90;99.90;;;;;;4881308;29;20434;-78
2024/01/10 02:02:59;;;;;;;42.13;28.80;;;-3.80;99.90;;;;;;4881404;29;20474;-78
2024/01/10 02:05:26;;;;;;;43.23;29.43;;;-3.80;99.90;;;;;;4881201;29;20868;-78
2024/01/10 02:07:54;;;;;;;40.23;28.70;;;-3.80;99.90;;;;;;4879771;29;20521;-78
2024/01/10 02:10:21;;;;;;;37.43;27.77;;;-3.80;99.90;;;;;;4881047;29;20446;-78
2024/01/10 02:12:48;;;;;;;37.70;27.83;;;-3.80;99.90;;;;;;4881121;29;20445;-78
2024/01/10 02:15:17;;;;;;;33.23;26.83;;;-3.80;99.90;;;;;;4879220;29;20478;-78
2024/01/10 02:17:44;;;;;;;39.20;28.37;;;-3.70;99.90;;;;;;4881216;29;20804;-78
2024/01/10 02:20:11;;;;;;;36.30;26.93;;;-3.70;99.90;;;;;;4880820;29;20497;-78
2024/01/10 02:22:38;;;;;;;34.87;28.13;;;-3.80;99.90;;;;;;4879569;29;20457;-78
2024/01/10 02:25:07;;;;;;;38.30;27.83;;;-3.70;99.90;;;;;;4879526;29;20481;-78
2024/01/10 02:27:35;;;;;;;30.90;25.93;;;-3.70;99.90;;;;;;4879444;29;20510;-78
2024/01/10 02:30:03;;;;;;;32.00;26.27;;;-3.60;99.90;;;;;;4880880;29;20902;-78
2024/01/10 02:32:30;;;;;;;34.70;26.30;;;-3.60;99.90;;;;;;4884643;29;20452;-78
2024/01/10 02:34:57;;;;;;;33.10;27.20;;;-3.60;99.90;;;;;;4880975;29;20520;-78
2024/01/10 02:37:23;;;;;;;33.77;26.03;;;-3.60;99.90;;;;;;4879484;29;20520;-78
2024/01/10 02:39:50;;;;;;;31.70;26.33;;;-3.60;99.90;;;;;;4879442;29;20469;-78
2024/01/10 02:42:19;;;;;;;35.33;25.90;;;-3.60;99.90;;;;;;4880370;29;20442;-78
2024/01/10 02:44:45;;;;;;;34.17;27.23;;;-3.50;99.90;;;;;;4874146;29;20522;-78
2024/01/10 02:47:13;;;;;;;31.53;25.37;;;-3.50;99.90;;;;;;4880283;29;20470;-78
2024/01/10 02:49:40;;;;;;;32.87;27.40;;;-3.60;99.90;;;;;;4879022;29;20462;-78
2024/01/10 02:52:07;;;;;;;34.00;25.93;;;-3.60;99.90;;;;;;4880401;29;20488;-78
2024/01/10 02:54:34;;;;;;;32.17;25.50;;;-3.60;99.90;;;;;;4879964;29;20847;-78
2024/01/10 02:57:00;;;;;;;31.70;25.70;;;-3.60;99.90;;;;;;4879057;29;20516;-78
2024/01/10 02:59:28;;;;;;;37.37;26.60;;;-3.60;99.90;;;;;;4878856;29;21013;-78
2024/01/10 03:01:55;;;;;;;33.50;25.00;;;-3.50;99.90;;;;;;4878894;29;20458;-78
2024/01/10 03:04:22;;;;;;;31.43;26.20;;;-3.50;99.90;;;;;;4880199;29;20497;-78
2024/01/10 03:06:49;;;;;;;31.80;25.77;;;-3.50;99.90;;;;;;4880126;29;20976;-77
2024/01/10 03:09:16;;;;;;;33.87;25.23;;;-3.60;99.90;;;;;;4880230;29;20533;-78
2024/01/10 03:11:43;;;;;;;30.90;24.07;;;-3.60;99.90;;;;;;4878793;29;20465;-78
2024/01/10 03:14:10;;;;;;;32.60;25.40;;;-3.60;99.90;;;;;;4878585;29;21012;-78
2024/01/10 03:16:39;;;;;;;32.87;25.50;;;-3.60;99.90;;;;;;4879158;29;20489;-78
2024/01/10 03:19:06;;;;;;;30.73;25.13;;;-3.60;99.90;;;;;;4880432;29;20477;-79
2024/01/10 03:21:32;;;;;;;31.30;25.17;;;-3.60;99.90;;;;;;4878599;29;20589;-78
2024/01/10 03:24:00;;;;;;;32.20;24.60;;;-3.70;99.90;;;;;;4879876;29;20445;-78
2024/01/10 03:26:28;;;;;;;33.43;26.53;;;-3.70;99.90;;;;;;4879631;29;20470;-78
2024/01/10 03:28:55;;;;;;;31.27;25.67;;;-3.70;99.90;;;;;;4878515;29;20450;-78
2024/01/10 03:31:21;;;;;;;29.63;24.80;;;-3.70;99.90;;;;;;4879826;29;20442;-78
2024/01/10 03:33:50;;;;;;;32.50;25.73;;;-3.70;99.90;;;;;;4879597;29;20975;-78
2024/01/10 03:36:18;;;;;;;33.53;26.27;;;-3.70;99.90;;;;;;4879630;29;20461;-78
2024/01/10 03:38:45;;;;;;;38.70;28.97;;;-3.70;99.90;;;;;;4878473;29;20969;-78
2024/01/10 03:41:14;;;;;;;30.43;26.43;;;-3.70;99.90;;;;;;4879687;29;20445;-80
2024/01/10 03:43:41;;;;;;;35.43;26.73;;;-3.70;99.90;;;;;;4878591;29;21041;-78
2024/01/10 03:46:07;;;;;;;33.97;27.63;;;-3.70;99.90;;;;;;4879761;29;20862;-78
2024/01/10 03:48:34;;;;;;;37.93;28.27;;;-3.60;99.90;;;;;;4878075;29;20552;-78
2024/01/10 03:51:02;;;;;;;36.13;27.57;;;-3.60;99.90;;;;;;4879515;29;20996;-79
2024/01/10 03:53:29;;;;;;;41.03;28.80;;;-3.60;99.90;;;;;;4882194;29;20467;-77
2024/01/10 03:55:56;;;;;;;33.13;26.83;;;-3.60;99.90;;;;;;4897832;29;21019;-81
2024/01/10 03:58:25;;;;;;;36.57;27.40;;;-3.60;99.90;;;;;;4872692;29;20454;-81
2024/01/10 04:00:51;;;;;;;34.80;27.57;;;-3.50;99.90;;;;;;4876480;29;20498;-81
2024/01/10 04:03:18;;;;;;;34.33;26.10;;;-3.50;99.90;;;;;;4868474;29;20511;-79
2024/01/10 04:05:45;;;;;;;35.60;26.43;;;-3.60;99.90;;;;;;4888055;29;20485;-80
2024/01/10 04:08:13;;;;;;;34.47;27.23;;;-3.60;99.90;;;;;;4886121;29;20448;-80
2024/01/10 04:10:40;;;;;;;32.40;26.33;;;-3.60;99.90;;;;;;4878899;29;20517;-80
2024/01/10 04:13:07;;;;;;;30.90;26.37;;;-3.60;99.90;;;;;;4878632;29;20465;-80
2024/01/10 04:15:34;;;;;;;35.00;27.20;;;-3.50;99.90;;;;;;4885369;29;20576;-80
2024/01/10 04:18:01;;;;;;;35.57;26.93;;;-3.50;99.90;;;;;;4887147;29;20438;-79
2024/01/10 04:20:28;;;;;;;28.83;25.50;;;-3.50;99.90;;;;;;4885977;29;20454;-80
2024/01/10 04:22:54;;;;;;;35.67;26.43;;;-3.60;99.90;;;;;;4879361;29;20477;-79
2024/01/10 04:25:25;;;;;;;34.60;26.23;;;-3.60;99.90;;;;;;4877894;29;20458;-80
2024/01/10 04:27:51;;;;;;;31.20;24.77;;;-3.60;99.90;;;;;;4879170;29;20449;-80
2024/01/10 04:30:18;;;;;;;31.93;26.77;;;-3.60;99.90;;;;;;4883982;29;20457;-80
2024/01/10 04:32:45;;;;;;;34.83;26.67;;;-3.60;99.90;;;;;;4879134;29;20449;-81
2024/01/10 04:35:12;;;;;;;40.60;28.10;;;-3.60;99.90;;;;;;4877788;29;20835;-80
2024/01/10 04:37:39;;;;;;;34.03;27.77;;;-3.60;99.90;;;;;;4879098;29;20441;-80
2024/01/10 04:40:07;;;;;;;37.73;27.07;;;-3.60;99.90;;;;;;4879318;29;20474;-79
2024/01/10 04:42:35;;;;;;;35.00;27.10;;;-3.60;99.90;;;;;;4877687;29;20451;-85
2024/01/10 04:45:02;;;;;;;31.80;26.17;;;-3.60;99.90;;;;;;4878844;29;20446;-78
2024/01/10 04:47:28;;;;;;;34.30;26.83;;;-3.60;99.90;;;;;;4878309;29;20489;-78
2024/01/10 04:49:55;;;;;;;31.30;26.57;;;-3.60;99.90;;;;;;4876900;29;20465;-78
2024/01/10 04:52:22;;;;;;;32.77;25.67;;;-3.60;99.90;;;;;;4878098;29;20988;-78
2024/01/10 04:54:49;;;;;;;38.30;28.40;;;-3.50;99.90;;;;;;4877377;29;20485;-78
2024/01/10 04:57:16;;;;;;;33.90;27.07;;;-3.50;99.90;;;;;;4876932;29;20561;-78
2024/01/10 04:59:44;;;;;;;35.73;26.37;;;-3.50;99.90;;;;;;4876173;29;20497;-77
2024/01/10 05:02:11;;;;;;;32.50;25.63;;;-3.50;99.90;;;;;;4878577;29;20438;-77
2024/01/10 05:04:38;;;;;;;31.70;25.03;;;-3.50;99.90;;;;;;4876947;29;20521;-79
2024/01/10 05:07:05;;;;;;;35.07;26.80;;;-3.40;99.90;;;;;;4879222;29;20527;-78
2024/01/10 05:09:32;;;;;;;30.17;25.30;;;-3.50;99.90;;;;;;4878118;29;20878;-78
2024/01/10 05:11:59;;;;;;;32.77;25.83;;;-3.40;99.90;;;;;;4876880;29;20542;-78
2024/01/10 05:14:26;;;;;;;31.47;25.20;;;-3.50;99.90;;;;;;4878008;29;20453;-78
2024/01/10 05:16:54;;;;;;;32.23;25.13;;;-3.40;99.90;;;;;;4876806;29;20530;-78
2024/01/10 05:19:21;;;;;;;32.87;25.30;;;-3.40;99.90;;;;;;4878409;29;20824;-78
2024/01/10 05:21:48;;;;;;;31.17;24.73;;;-3.50;99.90;;;;;;4876729;29;20819;-78
2024/01/10 05:24:15;;;;;;;32.00;26.27;;;-3.50;99.90;;;;;;4876772;29;20841;-78
2024/01/10 05:26:42;;;;;;;36.20;26.80;;;-3.50;99.90;;;;;;4877764;29;21061;-78
2024/01/10 05:29:09;;;;;;;34.27;26.77;;;-3.50;99.90;;;;;;4878090;29;20452;-78
2024/01/10 05:31:35;;;;;;;38.20;27.47;;;-3.60;99.90;;;;;;4876518;29;20481;-78
2024/01/10 05:34:04;;;;;;;38.33;26.47;;;-3.60;99.90;;;;;;4876295;29;21077;-78
2024/01/10 05:36:33;;;;;;;35.80;26.03;;;-3.60;99.90;;;;;;4875649;29;20482;-78
2024/01/10 05:39:00;;;;;;;35.60;26.23;;;-3.60;99.90;;;;;;4876676;29;20446;-78
2024/01/10 05:41:27;;;;;;;33.17;26.13;;;-3.60;99.90;;;;;;4878037;29;20532;-77
2024/01/10 05:43:54;;;;;;;32.93;27.00;;;-3.60;99.90;;;;;;4877717;29;20445;-78
2024/01/10 05:46:20;;;;;;;35.90;27.27;;;-3.60;99.90;;;;;;4877120;29;20473;-78
2024/01/10 05:48:48;;;;;;;35.60;26.53;;;-3.60;99.90;;;;;;4877729;29;20449;-78
2024/01/10 05:51:17;;;;;;;34.53;27.10;;;-3.60;99.90;;;;;;4877012;29;20496;-78
2024/01/10 05:53:43;;;;;;;33.93;27.07;;;-3.70;99.90;;;;;;4882509;29;20554;-78
2024/01/10 05:56:10;;;;;;;33.53;27.13;;;-3.60;99.90;;;;;;4876514;29;20497;-78
2024/01/10 05:58:37;;;;;;;35.53;26.27;;;-3.60;99.90;;;;;;4878266;29;20442;-78
2024/01/10 06:01:04;;;;;;;31.57;26.17;;;-3.60;99.90;;;;;;4876664;29;20489;-78
2024/01/10 06:03:31;;;;;;;36.13;28.97;;;-3.70;99.90;;;;;;4877658;29;20446;-77
2024/01/10 06:05:58;;;;;;;37.53;28.40;;;-3.70;99.90;;;;;;4877894;29;20461;-77
2024/01/10 06:08:28;;;;;;;33.93;27.80;;;-3.80;99.90;;;;;;4876776;29;20481;-78
2024/01/10 06:10:55;;;;;;;35.40;28.50;;;-3.90;99.90;;;;;;4877284;29;21021;-78
2024/01/10 06:13:22;;;;;;;40.13;29.43;;;-3.90;99.90;;;;;;4881328;29;20446;-78
2024/01/10 06:15:48;;;;;;;37.53;29.83;;;-4.00;99.90;;;;;;4879915;29;20517;-78
2024/01/10 06:18:15;;;;;;;37.90;28.17;;;-4.00;99.90;;;;;;4880017;29;20450;-78
2024/01/10 06:20:42;;;;;;;32.67;27.53;;;-4.00;99.90;;;;;;4880061;29;20457;-78
2024/01/10 06:23:09;;;;;;;40.63;28.53;;;-4.10;99.90;;;;;;4879756;29;20454;-77
2024/01/10 06:25:37;;;;;;;33.37;26.70;;;-4.10;99.90;;;;;;4879797;29;21020;-78
2024/01/10 06:28:04;;;;;;;32.63;26.67;;;-4.20;99.90;;;;;;4881168;29;20445;-78
2024/01/10 06:30:31;;;;;;;40.40;28.83;;;-4.30;99.90;;;;;;4880889;29;20510;-78
2024/01/10 06:32:58;;;;;;;32.73;25.70;;;-4.30;99.90;;;;;;4879697;29;20461;-78
2024/01/10 06:35:25;;;;;;;33.50;27.43;;;-4.40;99.90;;;;;;4875912;29;22234;-78
2024/01/10 06:37:51;;;;;;;33.03;27.70;;;-4.40;99.90;;;;;;4879494;29;20521;-78
2024/01/10 06:40:18;;;;;;;35.93;28.30;;;-4.50;99.90;;;;;;4880013;29;20532;-78
2024/01/10 06:42:47;;;;;;;32.23;25.13;;;-4.50;99.90;;;;;;4880557;29;20863;-78
2024/01/10 06:45:15;;;;;;;36.83;28.43;;;-4.50;99.90;;;;;;4879639;29;20453;-78
2024/01/10 06:47:41;;;;;;;37.53;27.87;;;-4.50;99.90;;;;;;4878808;29;20454;-78
2024/01/10 06:50:09;;;;;;;40.93;28.83;;;-4.50;99.90;;;;;;4889258;29;20489;-79
2024/01/10 06:52:35;;;;;;;41.97;30.83;;;-4.40;99.90;;;;;;4885401;29;20568;-78
2024/01/10 06:55:04;;;;;;;38.70;30.40;;;-4.40;99.90;;;;;;4880867;29;20826;-78
2024/01/10 06:57:30;;;;;;;42.60;29.77;;;-4.50;99.90;;;;;;4880570;29;20450;-78
2024/01/10 06:59:59;;;;;;;38.67;28.20;;;-4.50;99.90;;;;;;4880485;29;20441;-78
2024/01/10 07:02:26;;;;;;;34.00;27.67;;;-4.50;99.90;;;;;;4879377;29;20457;-78
2024/01/10 07:04:52;;;;;;;39.07;29.60;;;-4.60;99.90;;;;;;4880630;29;20474;-78
2024/01/10 07:07:19;;;;;;;45.87;29.63;;;-4.50;99.90;;;;;;4880060;29;21275;-78
2024/01/10 07:09:46;;;;;;;37.53;28.53;;;-4.50;99.90;;;;;;4880163;29;20445;-78
2024/01/10 07:12:13;;;;;;;36.87;28.37;;;-4.40;99.90;;;;;;4878625;29;20445;-78
2024/01/10 07:14:39;;;;;;;33.50;26.57;;;-4.50;99.90;;;;;;4879948;29;20455;-78
2024/01/10 07:17:08;;;;;;;35.20;27.87;;;-4.40;99.90;;;;;;4880065;29;20870;-78
2024/01/10 07:19:35;;;;;;;37.20;27.67;;;-4.30;99.90;;;;;;4880310;29;20441;-78
2024/01/10 07:22:02;;;;;;;32.23;28.07;;;-4.30;99.90;;;;;;4878529;29;20442;-78
2024/01/10 07:24:28;;;;;;;37.60;27.07;;;-4.30;99.90;;;;;;4878254;29;20881;-78
2024/01/10 07:26:57;;;;;;;34.03;26.57;;;-4.30;99.90;;;;;;4877949;29;20462;-78
2024/01/10 07:29:23;;;;;;;36.70;27.20;;;-4.20;99.90;;;;;;4886193;29;20445;-78
2024/01/10 07:31:52;;;;;;;36.13;27.83;;;-4.20;99.90;;;;;;4881127;29;20446;-78
2024/01/10 07:34:21;;;;;;;35.70;27.87;;;-4.20;99.90;;;;;;4879504;29;20501;-78
2024/01/10 07:36:47;;;;;;;36.30;28.37;;;-4.10;99.90;;;;;;4878192;29;20489;-79
2024/01/10 07:39:18;;;;;;;38.33;29.00;;;-4.10;99.90;;;;;;4879933;29;20438;-78
2024/01/10 07:41:45;;;;;;;37.90;28.20;;;-4.00;99.90;;;;;;4879615;29;20520;-78
2024/01/10 07:44:11;;;;;;;40.33;29.27;;;-4.00;99.90;;;;;;4879879;29;20442;-79
2024/01/10 07:46:38;;;;;;;42.30;28.10;;;-3.90;99.90;;;;;;4879309;29;20482;-79
2024/01/10 07:49:05;;;;;;;37.77;28.83;;;-3.90;99.90;;;;;;4878275;29;20453;-78
2024/01/10 07:51:33;;;;;;;37.87;26.53;;;-3.90;99.90;;;;;;4877746;29;20458;-79
2024/01/10 07:54:00;;;;;;;30.73;25.40;;;-3.80;99.90;;;;;;4879248;29;20472;-77
2024/01/10 07:56:27;;;;;;;37.27;28.77;;;-3.70;99.90;;;;;;4878173;29;20489;-78
2024/01/10 07:58:54;;;;;;;38.47;28.63;;;-3.70;99.90;;;;;;4879416;29;20449;-78
2024/01/10 08:01:21;;;;;;;33.13;27.40;;;-3.60;99.90;;;;;;4877961;29;20458;-78
2024/01/10 08:03:48;;;;;;;35.67;26.73;;;-3.50;99.90;;;;;;4879530;29;20445;-78
2024/01/10 08:06:14;;;;;;;33.20;26.33;;;-3.50;99.90;;;;;;4877955;29;20473;-79
2024/01/10 08:08:43;;;;;;;32.63;27.30;;;-3.50;99.90;;;;;;4879402;29;20959;-78
2024/01/10 08:11:09;;;;;;;40.00;29.67;;;-3.40;99.90;;;;;;4878037;29;20493;-78
2024/01/10 08:13:36;;;;;;;37.43;29.03;;;-3.30;99.90;;;;;;4877856;29;20442;-78
2024/01/10 08:16:04;;;;;;;37.17;29.67;;;-3.20;99.90;;;;;;4878943;29;20500;-78
2024/01/10 08:18:31;;;;;;;37.77;27.97;;;-3.10;99.90;;;;;;4877875;29;20442;-78
2024/01/10 08:20:59;;;;;;;35.80;27.73;;;-3.10;99.90;;;;;;4877636;29;20448;-78
2024/01/10 08:23:25;;;;;;;33.23;26.23;;;-3.00;99.90;;;;;;4878926;29;20450;-79
2024/01/10 08:25:55;;;;;;;35.80;28.37;;;-2.80;99.90;;;;;;4878285;29;20458;-78
2024/01/10 08:28:22;;;;;;;39.37;28.60;;;-2.60;99.90;;;;;;4877968;29;20888;-79
2024/01/10 08:30:48;;;;;;;36.60;27.97;;;-2.50;99.90;;;;;;4877621;29;20528;-78
2024/01/10 08:33:14;;;;;;;38.57;28.20;;;-2.50;99.90;;;;;;4877776;29;20457;-79
2024/01/10 08:35:42;;;;;;;36.93;28.63;;;-2.50;99.90;;;;;;4877646;29;20704;-78
2024/01/10 08:38:08;;;;;;;33.47;27.53;;;-2.50;99.90;;;;;;4877713;29;20454;-78
2024/01/10 08:40:35;;;;;;;44.73;29.97;;;-2.50;99.90;;;;;;4877850;29;20446;-79
2024/01/10 08:43:03;;;;;;;38.80;29.37;;;-2.40;99.90;;;;;;4877152;29;20210;-78
2024/01/10 08:45:30;;;;;;;37.83;27.97;;;-2.50;99.90;;;;;;4878331;29;20526;-78
2024/01/10 08:47:57;;;;;;;33.40;26.50;;;-2.40;99.90;;;;;;4875540;29;20454;-80
2024/01/10 08:50:24;;;;;;;35.03;27.03;;;-2.50;99.90;;;;;;4876636;29;20449;-80
2024/01/10 08:52:51;;;;;;;31.80;26.43;;;-2.40;99.90;;;;;;4877738;29;20830;-80
2024/01/10 08:55:18;;;;;;;31.43;26.47;;;-2.40;99.90;;;;;;4870372;29;20475;-80
2024/01/10 08:57:44;;;;;;;32.53;25.70;;;-2.20;99.90;;;;;;4875715;29;21122;-80
2024/01/10 09:00:16;;;;;;;32.07;25.27;;;-2.20;99.90;;;;;;4878927;29;20470;-80
2024/01/10 09:02:42;;;;;;;32.03;26.17;;;-2.30;99.90;;;;;;4881777;29;20265;-80
2024/01/10 09:05:09;;;;;;;34.20;26.10;;;-2.30;99.90;;;;;;4878749;29;20481;-80
2024/01/10 09:07:37;;;;;;;31.93;24.87;;;-2.40;99.90;;;;;;4879445;29;20449;-80
2024/01/10 09:10:05;;;;;;;32.90;26.20;;;-2.40;99.90;;;;;;4877876;29;20503;-79
2024/01/10 09:12:32;;;;;;;31.93;25.73;;;-2.50;99.90;;;;;;4885236;29;20453;-80
2024/01/10 09:14:59;;;;;;;32.13;25.67;;;-2.50;99.90;;;;;;4877180;29;20458;-79
2024/01/10 09:17:28;;;;;;;31.30;25.33;;;-2.50;99.90;;;;;;4876991;29;20911;-79
2024/01/10 09:19:55;;;;;;;31.27;24.77;;;-2.40;99.90;;;;;;4878455;29;20438;-79
2024/01/10 09:22:22;;;;;;;30.23;25.53;;;-2.30;99.90;;;;;;4878446;29;20442;-79
2024/01/10 09:24:49;;;;;;;33.50;25.10;;;-2.20;99.90;;;;;;4885495;29;20555;-77
2024/01/10 09:27:16;;;;;;;32.37;24.90;;;-2.10;99.90;;;;;;4877713;29;20466;-79
2024/01/10 09:29:43;;;;;;;35.17;25.90;;;-2.00;99.90;;;;;;4877872;29;20454;-79
2024/01/10 09:32:09;;;;;;;31.13;25.17;;;-1.90;99.90;;;;;;4876985;29;20506;-79
2024/01/10 09:34:37;;;;;;;30.60;26.67;;;-1.80;99.90;;;;;;4878615;29;20491;-79
2024/01/10 09:37:05;;;;;;;33.27;26.60;;;-1.70;99.90;;;;;;4878433;29;20500;-79
2024/01/10 09:39:31;;;;;;;33.50;27.20;;;-1.70;99.90;;;;;;4877192;29;20542;-79
2024/01/10 09:42:01;;;;;;;35.23;27.10;;;-1.70;99.90;;;;;;4877798;29;20454;-79
2024/01/10 09:44:29;;;;;;;36.47;27.63;;;-1.60;99.90;;;;;;4878218;29;20498;-79
2024/01/10 09:46:56;;;;;;;36.90;27.33;;;-1.70;99.90;;;;;;4880395;29;20474;-79
2024/01/10 09:49:23;;;;;;;34.50;26.97;;;-1.60;99.90;;;;;;4881929;29;20507;-79
2024/01/10 09:51:54;;;;;;;32.43;25.77;;;-1.40;99.90;;;;;;4881537;29;20599;-79
2024/01/10 09:54:23;;;;;;;34.50;26.73;;;-1.20;99.90;;;;;;4880841;29;20881;-79
2024/01/10 09:56:50;;;;;;;35.67;28.30;;;-1.00;99.90;;;;;;4881416;29;20856;-79
2024/01/10 09:59:16;;;;;;;34.87;26.90;;;-1.10;99.90;;;;;;4880041;29;20455;-79
2024/01/10 10:01:44;;;;;;;40.77;29.60;;;-1.10;99.90;;;;;;4881670;29;20531;-79
2024/01/10 10:04:13;;;;;;;35.93;28.90;;;-1.20;99.90;;;;;;4881240;29;20508;-79
2024/01/10 10:06:40;;;;;;;35.40;27.80;;;-1.20;99.90;;;;;;4881641;29;21053;-79
2024/01/10 10:09:11;;;;;;;31.70;26.53;;;-1.10;99.90;;;;;;4881196;29;20962;-79
2024/01/10 10:11:38;;;;;;;31.30;27.53;;;-1.00;99.90;;;;;;4881078;29;20436;-79
2024/01/10 10:14:18;;;;;;;33.43;26.93;;;-1.00;99.90;;;;;;4881156;29;20507;-79
2024/01/10 10:16:45;;;;;;;31.53;26.17;;;-1.00;99.90;;;;;;4880099;29;20567;-79
2024/01/10 10:19:13;;;;;;;34.77;28.90;;;-0.90;99.90;;;;;;4881113;29;20869;-79
2024/01/10 10:21:40;;;;;;;33.50;27.60;;;-0.90;99.90;;;;;;4881273;29;20452;-79
2024/01/10 10:24:09;;;;;;;33.90;27.67;;;-0.90;99.90;;;;;;4879019;29;20445;-79
2024/01/10 10:26:36;;;;;;;38.77;28.73;;;-0.90;99.90;;;;;;4878960;29;21033;-80
2024/01/10 10:29:04;;;;;;;33.30;26.57;;;-0.90;99.90;;;;;;4881073;29;20495;-79
2024/01/10 10:31:32;;;;;;;42.17;29.00;;;-0.90;99.90;;;;;;4879439;29;20466;-79
2024/01/10 10:34:00;;;;;;;31.97;27.23;;;-0.90;99.90;;;;;;4880705;29;20471;-79
2024/01/10 10:36:27;;;;;;;33.47;27.40;;;-0.90;99.90;;;;;;4880645;29;20494;-79
2024/01/10 10:38:54;;;;;;;35.93;28.67;;;-0.90;99.90;;;;;;4880706;29;22521;-79
2024/01/10 10:41:23;;;;;;;34.00;26.33;;;-1.00;99.90;;;;;;4879273;29;20459;-79
2024/01/10 10:43:52;;;;;;;39.23;29.40;;;-0.90;99.90;;;;;;4880752;29;20974;-79
2024/01/10 10:46:22;;;;;;;38.27;30.07;;;-0.90;99.90;;;;;;4879222;29;20472;-79
2024/01/10 10:48:49;;;;;;;35.80;28.40;;;-0.80;99.90;;;;;;4880866;29;20496;-79
2024/01/10 10:51:19;;;;;;;36.27;28.90;;;-0.80;99.90;;;;;;4879453;29;20466;-79
2024/01/10 10:53:48;;;;;;;33.53;27.33;;;-0.80;99.90;;;;;;4880551;29;20442;-83
2024/01/10 10:56:15;;;;;;;33.47;27.00;;;-0.80;99.90;;;;;;4881323;29;20469;-83
2024/01/10 10:58:44;;;;;;;33.00;25.87;;;-0.70;99.90;;;;;;4878491;29;20465;-78
2024/01/10 11:01:13;;;;;;;33.00;27.17;;;-0.60;99.90;;;;;;4878373;29;20465;-79
2024/01/10 11:03:42;;;;;;;37.07;27.30;;;-0.60;99.90;;;;;;4880545;29;20769;-79
2024/01/10 11:06:09;;;;;;;38.27;28.90;;;-0.60;99.90;;;;;;4885845;29;20499;-80
2024/01/10 11:08:41;;;;;;;31.80;27.57;;;-0.70;99.90;;;;;;4886343;29;20457;-80
2024/01/10 11:11:19;;;;;;;36.20;27.77;;;-0.60;99.90;;;;;;4876721;29;20594;-77
2024/01/10 11:14:01;;;;;;;31.17;27.17;;;-0.60;99.90;;;;;;4883494;29;20457;-79
2024/01/10 11:16:57;;;;;;;36.97;28.20;;;-0.60;99.90;;;;;;4875193;29;20538;-77
2024/01/10 11:20:09;;;;;;;41.13;29.73;;;-0.50;99.90;;;;;;4880068;29;20448;-78
2024/01/10 11:22:51;;;;;;;36.00;27.93;;;-0.50;99.90;;;;;;4875912;29;21212;-78
2024/01/10 11:25:19;;;;;;;35.83;28.77;;;-0.60;99.90;;;;;;4879550;29;20448;-78
2024/01/10 11:27:47;;;;;;;34.33;28.47;;;-0.50;99.90;;;;;;4879784;29;20448;-79
2024/01/10 11:30:33;;;;;;;36.03;29.73;;;-0.50;99.90;;;;;;4881261;29;20532;-77
2024/01/10 11:33:02;;;;;;;36.03;29.40;;;-0.50;99.90;;;;;;4877178;29;20447;-78
2024/01/10 11:35:31;;;;;;;35.40;30.73;;;-0.50;99.90;;;;;;4879317;29;20471;-79
2024/01/10 11:38:00;;;;;;;36.03;29.10;;;-0.50;99.90;;;;;;4878317;29;20492;-80
2024/01/10 11:40:48;;;;;;;38.20;30.13;;;-0.50;99.90;;;;;;4878499;29;20543;-79
2024/01/10 11:43:15;;;;;;;37.87;30.83;;;-0.50;99.90;;;;;;4878194;29;20540;-80
2024/01/10 11:45:53;;;;;;;35.23;29.17;;;-0.50;99.90;;;;;;4878853;29;21020;-79
2024/01/10 11:48:28;;;;;;;32.00;27.53;;;-0.40;99.90;;;;;;4879952;29;20448;-80
2024/01/10 11:50:55;;;;;;;32.90;27.93;;;-0.30;99.90;;;;;;4881238;29;20468;-78
2024/01/10 11:53:46;;;;;;;32.70;26.77;;;-0.30;99.90;;;;;;4881238;29;20466;-81
2024/01/10 11:56:15;;;;;;;30.67;26.83;;;-0.20;99.90;;;;;;4880160;29;20482;-81
2024/01/10 11:59:15;;;;;;;34.30;26.70;;;-0.10;99.90;;;;;;4880316;29;20496;-80
2024/01/10 12:01:44;;;;;;;32.27;26.27;;;-0.10;99.90;;;;;;4846343;29;20558;-81
2024/01/10 12:04:10;;;;;;;29.90;25.83;;;-0.10;99.90;;;;;;4869345;29;20453;-81
2024/01/10 12:06:38;;;;;;;32.37;25.83;;;-0.10;99.90;;;;;;4881421;29;20469;-80
2024/01/10 12:09:08;;;;;;;33.40;26.93;;;0.00;99.90;;;;;;4879160;29;20983;-78
2024/01/10 12:11:35;;;;;;;33.60;28.37;;;0.00;99.90;;;;;;4879728;29;20996;-79
2024/01/10 12:14:02;;;;;;;32.97;27.37;;;0.00;99.90;;;;;;4875406;29;20515;-78
2024/01/10 12:16:29;;;;;;;37.20;27.57;;;0.00;99.90;;;;;;4879156;29;20569;-79
2024/01/10 12:18:57;;;;;;;31.67;26.60;;;0.00;99.90;;;;;;4878775;29;20470;-80
2024/01/10 12:21:24;;;;;;;31.83;26.57;;;0.10;99.90;;;;;;4878925;29;20444;-79
2024/01/10 12:23:51;;;;;;;33.23;28.50;;;0.10;99.90;;;;;;4877933;29;20468;-80
2024/01/10 12:26:19;;;;;;;34.03;25.70;;;0.10;99.90;;;;;;4879457;29;20469;-77
2024/01/10 12:28:54;;;;;;;35.10;26.33;;;0.20;99.90;;;;;;4879904;29;20445;-78
2024/01/10 12:31:22;;;;;;;31.30;26.57;;;0.20;99.90;;;;;;4878103;29;20472;-81